Latest Weather Observations for Tatura

IDV60801

Issued at 7:05 pm EDT Thursday 18 December 2014 (issued every 30 minutes, with the page automatically refreshed every 10 minutes)

About weather observations | Map of weather stations | Latest weather observations for VIC | Other Formats
Station Details ID: 081049 Name: TATURA INST SUSTAINABLE AG Lat: -36.44 Lon: 145.27 Height: 114.0 m
Data from the previous 72 hours. | See also: Recent months at Tatura
Date/Time
EDT
Temp
°C
App
Temp
°C
Dew
Point
Rel
Hum
%
Delta-T
°C
Wind Press
QNH
hPa
Press
MSL
hPa
Rain
since 9 am
mm
Dir
 
Spd
km/h
Gust
km/h
Spd
kts
Gust
kts
18/07:00pm 20.1 14.7 7.8 45 6.4 SSW 26 39 14 21 - - 0.0
18/06:30pm 20.0 14.5 9.0 49 5.8 SSW 28 35 15 19 - - 0.0
18/06:07pm 20.9 15.1 7.9 43 6.8 SW 28 46 15 25 - - 0.0
18/06:06pm 20.9 15.1 7.9 43 6.8 SW 28 46 15 25 - - 0.0
18/06:00pm 20.4 15.0 8.1 45 6.4 SW 26 41 14 22 - - 0.0
18/05:35pm 22.6 15.3 5.5 33 8.6 SW 33 54 18 29 - - 0.0
18/05:30pm 22.7 15.3 4.2 30 9.1 WSW 32 54 17 29 - - 0.0
18/05:24pm 23.5 16.1 4.0 28 9.6 W 32 59 17 32 - - 0.0
18/05:23pm 23.5 16.1 4.0 28 9.6 W 32 59 17 32 - - 0.0
18/05:00pm 25.2 17.9 2.6 23 11.0 W 30 39 16 21 - - 0.0
18/04:30pm 25.1 18.5 1.9 22 11.1 W 26 33 14 18 - - 0.0
18/04:00pm 25.1 17.8 -0.1 19 11.6 W 28 43 15 23 - - 0.0
18/03:36pm 25.3 17.3 0.7 20 11.6 W 32 50 17 27 - - 0.0
18/03:35pm 25.3 17.3 0.7 20 11.6 W 32 50 17 27 - - 0.0
18/03:30pm 25.4 17.7 2.2 22 11.2 W 32 46 17 25 - - 0.0
18/03:12pm 26.0 17.4 2.7 22 11.4 W 37 56 20 30 - - 0.0
18/03:11pm 26.0 17.4 2.7 22 11.4 W 37 56 20 30 - - 0.0
18/03:00pm 25.6 16.9 2.3 22 11.3 W 37 54 20 29 - - 0.0
18/02:45pm 26.0 17.8 2.7 22 11.4 W 35 56 19 30 - - 0.0
18/02:44pm 26.0 18.2 2.7 22 11.4 W 33 56 18 30 - - 0.0
18/02:30pm 25.3 17.8 3.3 24 10.8 W 32 48 17 26 - - 0.0
18/02:14pm 24.2 16.7 3.5 26 10.2 W 32 50 17 27 - - 0.0
18/02:13pm 24.2 16.7 3.5 26 10.2 W 32 50 17 27 - - 0.0
18/02:00pm 24.1 16.3 2.9 25 10.3 W 33 46 18 25 - - 0.0
18/01:32pm 24.3 16.0 1.9 23 10.7 W 35 54 19 29 - - 0.0
18/01:31pm 24.3 16.0 1.9 23 10.7 W 35 54 19 29 - - 0.0
18/01:30pm 24.5 16.6 2.0 23 10.8 W 33 46 18 25 - - 0.0
18/01:09pm 24.9 17.2 2.4 23 10.9 WNW 32 52 17 28 - - 0.0
18/01:08pm 24.9 17.2 2.4 23 10.9 WNW 32 52 17 28 - - 0.0
18/01:00pm 25.1 18.2 2.5 23 11.0 WNW 28 44 15 24 - - 0.0
18/12:44pm 24.7 16.9 1.6 22 11.0 WNW 32 41 17 22 - - 0.0
18/12:33pm 26.0 17.0 2.7 22 11.4 W 39 46 21 25 - - 0.0
18/12:30pm 26.1 17.7 1.4 20 11.8 WNW 35 54 19 29 - - 0.0
18/12:29pm 26.1 17.7 1.4 20 11.8 WNW 35 54 19 29 - - 0.0
18/12:00pm 26.5 18.6 2.4 21 11.8 W 33 50 18 27 - - 0.0
18/11:56am 25.8 17.8 1.8 21 11.5 W 33 52 18 28 - - 0.0
18/11:51am 25.7 17.6 1.1 20 11.7 WNW 33 52 18 28 - - 0.0
18/11:30am 26.2 17.8 1.5 20 11.8 WNW 35 43 19 23 - - 0.0
18/11:00am 25.9 18.9 1.9 21 11.6 WNW 28 44 15 24 - - 0.0
18/10:30am 25.6 19.2 1.0 20 11.6 WNW 24 37 13 20 - - 0.0
18/10:00am 24.1 18.1 1.1 22 10.8 NNW 22 32 12 17 - - 0.0
18/09:30am 23.0 18.7 3.0 27 9.6 N 15 20 8 11 - - 0.0
18/09:00am 20.9 17.2 2.2 29 8.7 N 11 17 6 9 - - 0.0
18/08:30am 18.8 15.9 4.9 40 6.7 NNE 9 13 5 7 - - 0.0
18/08:00am 16.4 13.5 4.4 45 5.7 NE 9 13 5 7 - - 0.0
18/07:30am 14.0 11.8 6.4 60 3.7 NNE 7 11 4 6 - - 0.0
18/07:00am 10.8 10.6 9.1 89 0.8 CALM 0 0 0 0 - - 0.0
18/06:30am 8.0 7.1 6.1 88 0.9 CALM 0 0 0 0 - - 0.0
18/06:00am 7.2 6.1 5.2 87 0.9 CALM 0 0 0 0 - - 0.0
18/05:30am 7.8 6.0 5.6 86 1.0 ESE 4 6 2 3 - - 0.0
18/05:00am 8.5 6.8 6.1 85 1.1 E 4 7 2 4 - - 0.0
18/04:30am 8.8 8.0 6.6 86 1.0 CALM 0 0 0 0 - - 0.0
18/04:00am 8.6 7.7 5.9 83 1.2 CALM 0 0 0 0 - - 0.0
18/03:30am 9.4 8.6 6.5 82 1.4 CALM 0 0 0 0 - - 0.0
18/03:00am 9.4 7.5 5.0 74 2.0 SE 4 7 2 4 - - 0.0
18/02:30am 10.0 9.0 5.4 73 2.1 CALM 0 0 0 0 - - 0.0
18/02:00am 10.6 9.5 4.9 68 2.6 CALM 0 0 0 0 - - 0.0
18/01:30am 11.4 10.2 4.6 63 3.1 CALM 0 0 0 0 - - 0.0
18/01:00am 13.0 11.7 4.2 55 4.0 CALM 0 0 0 0 - - 0.0
18/12:30am 13.3 10.8 3.7 52 4.4 WSW 6 7 3 4 - - 0.0
18/12:00am 13.2 10.7 4.9 57 3.9 N 7 9 4 5 - - 0.0
 
Date/Time
EDT
Temp
°C
App
Temp
°C
Dew
Point
Rel
Hum
%
Delta-T
°C
Wind Press
QNH
hPa
Press
MSL
hPa
Rain
since 9 am
mm
Dir
 
Spd
km/h
Gust
km/h
Spd
kts
Gust
kts
17/11:30pm 13.8 11.4 5.4 57 4.0 N 7 9 4 5 - - 0.0
17/11:00pm 14.5 12.2 4.8 52 4.5 N 6 7 3 4 - - 0.0
17/10:30pm 15.1 12.2 1.6 40 5.9 NW 6 7 3 4 - - 0.0
17/10:00pm 16.1 13.1 1.8 38 6.4 NNW 7 9 4 5 - - 0.0
17/09:30pm 17.8 14.2 0.9 32 7.5 NNW 9 13 5 7 - - 0.0
17/09:00pm 18.6 14.6 0.7 30 8.0 NNW 11 13 6 7 - - 0.0
17/08:30pm 19.6 16.0 0.6 28 8.5 NNW 9 11 5 6 - - 0.0
17/08:00pm 22.2 18.1 -0.5 22 10.2 WNW 11 13 6 7 - - 0.0
17/07:30pm 23.4 18.8 -0.8 20 10.9 WNW 13 19 7 10 - - 0.0
17/07:00pm 24.1 19.0 -1.7 18 11.5 W 15 24 8 13 - - 0.0
17/06:30pm 23.9 19.6 -1.8 18 11.4 NW 11 17 6 9 - - 0.0
17/06:00pm 24.5 21.1 -0.6 19 11.4 NNW 7 20 4 11 - - 0.0
17/05:30pm 24.2 20.8 -0.9 19 11.3 NW 7 13 4 7 - - 0.0
17/05:00pm 23.7 20.6 -2.8 17 11.5 WNW 4 13 2 7 - - 0.0
17/04:30pm 23.7 19.1 -1.3 19 11.2 NW 13 22 7 12 - - 0.0
17/04:00pm 22.8 17.3 -2.0 19 10.8 SSE 17 24 9 13 - - 0.0
17/03:30pm 23.4 18.8 -0.8 20 10.9 SSW 13 22 7 12 - - 0.0
17/03:00pm 22.6 17.4 -0.2 22 10.3 SW 17 24 9 13 - - 0.0
17/02:30pm 21.7 17.1 -0.9 22 10.0 S 13 22 7 12 - - 0.0
17/02:00pm 21.1 17.1 0.3 25 9.4 SSW 11 26 6 14 - - 0.0
17/01:30pm 21.5 17.4 2.2 28 9.1 WSW 13 22 7 12 - - 0.0
17/01:00pm 19.9 16.2 2.3 31 8.2 W 11 17 6 9 - - 0.0
17/12:30pm 20.2 16.7 3.4 33 8.0 WSW 11 24 6 13 - - 0.0
17/12:00pm 18.5 13.6 1.9 33 7.6 S 17 22 9 12 - - 0.0
17/11:30am 18.5 14.0 4.3 39 6.8 SSE 17 20 9 11 - - 0.0
17/11:00am 17.8 12.9 2.2 35 7.1 S 17 32 9 17 - - 0.0
17/10:30am 16.9 12.0 2.1 37 6.7 SSE 17 26 9 14 - - 0.0
17/10:00am 16.1 10.8 2.9 41 6.0 SE 20 30 11 16 - - 0.0
17/09:30am 15.8 11.3 4.2 46 5.4 S 17 28 9 15 - - 0.0
17/09:00am 15.0 10.2 4.7 50 4.8 SE 19 26 10 14 - - 0.0
17/08:30am 14.4 10.3 6.0 57 4.0 SSE 17 24 9 13 - - 0.0
17/08:00am 13.6 10.0 5.0 56 4.0 S 13 19 7 10 - - 0.0
17/07:30am 12.6 9.4 5.1 60 3.5 SSW 11 17 6 9 - - 0.0
17/07:00am 11.4 8.9 4.8 64 3.0 S 7 11 4 6 - - 0.0
17/06:30am 8.5 6.1 4.3 75 1.9 SW 6 7 3 4 - - 0.0
17/06:00am 7.3 5.5 3.5 77 1.6 SW 2 7 1 4 - - 0.0
17/05:30am 7.8 5.1 3.7 75 1.8 WSW 7 9 4 5 - - 0.0
17/05:00am 9.3 6.6 3.5 67 2.5 SSW 7 11 4 6 - - 0.0
17/04:30am 8.7 7.4 3.9 72 2.1 CALM 0 4 0 2 - - 0.0
17/04:00am 10.0 7.4 3.3 63 2.9 SSE 6 9 3 5 - - 0.0
17/03:30am 10.7 7.5 3.3 60 3.3 SSW 9 11 5 6 - - 0.0
17/03:00am 11.4 8.2 2.9 56 3.7 SSW 9 13 5 7 - - 0.0
17/02:30am 12.1 8.9 2.8 53 4.1 S 9 13 5 7 - - 0.0
17/02:00am 13.0 8.9 2.5 49 4.6 S 13 17 7 9 - - 0.0
17/01:30am 14.0 8.8 2.3 45 5.2 S 19 24 10 13 - - 0.0
17/01:00am 14.4 8.9 1.7 42 5.6 SSW 20 26 11 14 - - 0.0
17/12:30am 14.7 9.5 2.6 44 5.4 S 19 30 10 16 - - 0.0
17/12:00am 15.2 9.7 1.7 40 6.0 S 20 32 11 17 - - 0.0
 
Date/Time
EDT
Temp
°C
App
Temp
°C
Dew
Point
Rel
Hum
%
Delta-T
°C
Wind Press
QNH
hPa
Press
MSL
hPa
Rain
since 9 am
mm
Dir
 
Spd
km/h
Gust
km/h
Spd
kts
Gust
kts
16/11:30pm 15.8 9.1 1.2 37 6.4 S 26 39 14 21 - - 0.0
16/11:00pm 16.5 10.2 1.8 37 6.6 S 24 39 13 21 - - 0.0
16/10:30pm 17.5 10.8 3.8 40 6.4 SSW 28 46 15 25 - - 0.0
16/10:29pm 17.7 11.0 3.6 39 6.6 S 28 46 15 25 - - 0.0
16/10:28pm 17.7 11.0 3.6 39 6.6 S 28 46 15 25 - - 0.0
16/10:00pm 18.0 13.4 3.9 39 6.7 S 17 24 9 13 - - 0.0
16/09:30pm 18.6 13.2 4.4 39 6.8 SSW 22 37 12 20 - - 0.0
16/09:00pm 20.2 13.3 4.7 36 7.6 SW 30 54 16 29 - - 0.0
16/08:40pm 21.1 14.3 2.9 30 8.6 WSW 28 46 15 25 - - 0.0
16/08:30pm 21.0 14.8 4.1 33 8.2 WSW 26 37 14 20 - - 0.0
16/08:00pm 21.7 14.1 6.0 36 7.9 WSW 35 63 19 34 - - 0.0
16/07:31pm 23.1 14.7 7.2 36 8.3 WSW 41 61 22 33 - - 0.0
16/07:30pm 23.1 14.7 7.2 36 8.3 WSW 41 61 22 33 - - 0.0
16/07:00pm 24.6 15.5 6.8 32 9.3 WSW 44 65 24 35 - - 0.0
16/06:42pm 26.3 17.0 5.8 27 10.6 W 44 80 24 43 - - 0.0
16/06:41pm 26.3 17.0 5.8 27 10.6 W 44 80 24 43 - - 0.0
16/06:32pm 27.7 18.6 4.1 22 12.0 W 41 59 22 32 - - 0.0
16/06:31pm 27.7 18.6 4.1 22 12.0 W 41 59 22 32 - - 0.0
16/06:30pm 27.8 18.4 4.2 22 12.0 W 43 59 23 32 - - 0.0
16/06:06pm 29.2 20.1 1.7 17 13.5 WSW 39 57 21 31 - - 0.0
16/06:00pm 30.0 20.2 -0.4 14 14.5 W 41 59 22 32 - - 0.0
16/05:30pm 30.6 19.2 -2.0 12 15.2 W 48 67 26 36 - - 0.0
16/05:00pm 31.5 19.7 -2.5 11 15.8 W 50 76 27 41 - - 0.0
16/04:32pm 32.5 21.8 -3.0 10 16.5 WNW 44 63 24 34 - - 0.0
16/04:31pm 32.5 21.8 -3.0 10 16.5 WNW 44 63 24 34 - - 0.0
16/04:30pm 32.7 22.3 -1.6 11 16.3 WNW 43 57 23 31 - - 0.0
16/04:09pm 32.5 21.7 -0.5 12 16.0 WNW 46 65 25 35 - - 0.0
16/04:07pm 32.2 21.2 -2.0 11 16.1 WNW 46 65 25 35 - - 0.0
16/04:00pm 32.2 21.6 -2.0 11 16.1 WNW 44 61 24 33 - - 0.0
16/03:30pm 32.5 23.4 -0.5 12 16.0 WNW 37 57 20 31 - - 0.0
16/03:29pm 32.6 23.0 -1.7 11 16.3 WNW 39 57 21 31 - - 0.0
16/03:17pm 32.1 21.2 -0.9 12 15.8 WNW 46 57 25 31 - - 0.0
16/03:14pm 32.1 22.6 -0.9 12 15.8 WNW 39 48 21 26 - - 0.0
16/03:04pm 32.0 22.5 -0.9 12 15.8 NW 39 57 21 31 - - 0.0
16/03:03pm 32.0 22.5 -0.9 12 15.8 NW 39 57 21 31 - - 0.0
16/03:00pm 31.9 22.7 -1.0 12 15.7 NW 37 52 20 28 - - 0.0
16/02:52pm 32.4 24.5 -1.8 11 16.2 NW 30 50 16 27 - - 0.0
16/02:51pm 32.4 24.5 -1.8 11 16.2 NW 30 50 16 27 - - 0.0
16/02:30pm 31.7 23.3 -2.3 11 15.9 NW 32 48 17 26 - - 0.0
16/02:07pm 31.6 23.6 -2.4 11 15.8 NW 30 48 16 26 - - 0.0
16/02:06pm 31.6 23.6 -2.4 11 15.8 NW 30 48 16 26 - - 0.0
16/02:00pm 31.3 23.3 -2.6 11 15.7 WNW 30 43 16 23 - - 0.0
16/01:30pm 31.2 24.3 -2.7 11 15.7 WNW 24 37 13 20 - - 0.0
16/01:00pm 30.8 24.0 -1.9 12 15.3 WNW 24 35 13 19 - - 0.0
16/12:30pm 29.7 21.1 -3.9 11 15.0 WNW 32 43 17 23 - - 0.0
16/12:09pm 29.3 20.8 -3.0 12 14.6 W 32 52 17 28 - - 0.0
16/12:08pm 29.3 20.8 -3.0 12 14.6 W 32 52 17 28 - - 0.0
16/12:00pm 29.2 20.8 -1.0 14 14.2 WNW 33 44 18 24 - - 0.0
16/11:52am 29.3 20.5 -0.9 14 14.2 W 35 54 19 29 - - 0.0
16/11:30am 28.3 19.7 0.1 16 13.4 WNW 35 46 19 25 - - 0.0
16/11:00am 28.0 19.0 -3.0 13 13.9 WNW 35 50 19 27 - - 0.0
16/10:56am 27.9 19.4 -3.0 13 13.8 WNW 32 50 17 27 - - 0.0
16/10:55am 27.9 19.4 -3.0 13 13.8 WNW 32 50 17 27 - - 0.0
16/10:30am 27.2 20.1 1.6 19 12.4 WNW 28 39 15 21 - - 0.0
16/10:00am 26.8 21.4 4.6 24 11.3 W 22 37 12 20 - - 0.0
16/09:30am 26.1 20.5 7.2 30 10.0 W 26 37 14 20 - - 0.0
16/09:00am 25.1 20.8 10.9 41 8.0 W 24 32 13 17 - - 1.4
16/08:30am 24.5 22.1 12.5 47 6.9 W 17 22 9 12 - - 1.4
16/08:00am 22.7 21.7 13.5 56 5.4 NNW 11 17 6 9 - - 1.4
16/07:30am 21.4 21.1 13.3 60 4.7 NW 7 11 4 6 - - 1.4
16/07:00am 19.8 19.5 13.3 66 3.7 NW 7 9 4 5 - - 1.4
16/06:30am 19.4 18.8 12.2 63 4.0 NE 7 11 4 6 - - 1.4
16/06:00am 19.8 18.8 12.3 62 4.2 N 9 13 5 7 - - 1.4
16/05:30am 20.7 18.8 11.9 57 4.9 NE 13 20 7 11 - - 1.4
16/05:00am 20.9 18.2 11.8 56 5.1 ENE 17 22 9 12 - - 1.4
16/04:30am 20.0 18.5 12.0 60 4.5 ENE 11 15 6 8 - - 1.4
16/04:00am 19.2 19.4 11.7 62 4.2 NE 2 6 1 3 - - 1.4
16/03:30am 20.9 19.3 11.5 55 5.2 NNE 11 17 6 9 - - 1.4
16/03:00am 22.4 20.3 11.2 49 6.3 NE 13 20 7 11 - - 1.4
16/02:30am 23.4 20.0 11.1 46 6.9 ENE 20 30 11 16 - - 1.4
16/02:00am 24.0 19.8 11.0 44 7.3 NE 24 43 13 23 - - 1.4
16/01:30am 23.6 20.3 11.6 47 6.8 NE 20 28 11 15 - - 1.4
16/01:00am 24.4 21.0 11.4 44 7.4 NE 20 28 11 15 - - 1.4
16/12:30am 25.1 20.5 10.9 41 8.0 NE 26 35 14 19 - - 1.4
16/12:00am 25.2 21.5 10.3 39 8.3 NE 20 28 11 15 - - 1.4
 
Date/Time
EDT
Temp
°C
App
Temp
°C
Dew
Point
Rel
Hum
%
Delta-T
°C
Wind Press
QNH
hPa
Press
MSL
hPa
Rain
since 9 am
mm
Dir
 
Spd
km/h
Gust
km/h
Spd
kts
Gust
kts
15/11:30pm 24.1 20.9 11.8 46 7.0 NNE 20 28 11 15 - - 1.4
15/11:00pm 22.6 17.9 14.2 59 4.9 NE 32 35 17 19 - - 1.4
15/10:30pm 23.3 20.7 13.2 53 5.9 E 19 28 10 15 - - 1.0
15/10:00pm 23.6 20.9 13.5 53 5.9 ENE 20 26 11 14 - - 1.0
15/09:30pm 24.0 22.0 12.6 49 6.6 E 15 19 8 10 - - 1.0
15/09:00pm 25.8 22.4 11.2 40 8.3 SE 20 33 11 18 - - 1.0
15/08:30pm 28.5 25.7 8.7 29 10.9 ENE 13 19 7 10 - - 0.0
15/08:00pm 29.2 26.8 8.8 28 11.3 E 11 13 6 7 - - 0.0
15/07:30pm 31.0 28.6 6.8 22 13.1 E 9 13 5 7 - - 0.0

Other Formats:

Comma delimited format used in spreadsheet applications
http://www.bom.gov.au/fwo/IDV60801/IDV60801.95836.axf

JavaScript Object Notation format (JSON) in row-major order
http://www.bom.gov.au/fwo/IDV60801/IDV60801.95836.json